createdAt,value
2022-09-07T00:01:00.840Z,98844.03
2022-09-07T00:03:46.707Z,98841.59
2022-09-07T00:06:34.647Z,98826.53
2022-09-07T00:09:20.103Z,98822.50
2022-09-07T00:12:05.434Z,98828.94
2022-09-07T00:14:50.953Z,98827.72
2022-09-07T00:17:37.096Z,98827.34
2022-09-07T00:20:22.388Z,98819.38
2022-09-07T00:23:07.813Z,98821.03
2022-09-07T00:25:54.237Z,98814.34
2022-09-07T00:28:45.031Z,98810.00
2022-09-07T00:31:31.724Z,98808.44
2022-09-07T00:34:17.268Z,98811.66
2022-09-07T00:37:02.570Z,98813.66
2022-09-07T00:39:47.917Z,98815.53
2022-09-07T00:42:33.224Z,98805.66
2022-09-07T00:45:21.449Z,98810.50
2022-09-07T00:48:19.053Z,98801.41
2022-09-07T00:51:12.154Z,98807.38
2022-09-07T00:54:00.075Z,98805.31
2022-09-07T00:56:47.165Z,98800.28
2022-09-07T00:59:41.726Z,98804.69
2022-09-07T01:02:27.756Z,98800.69
2022-09-07T01:05:24.038Z,98801.47
2022-09-07T01:08:12.183Z,98794.38
2022-09-07T01:11:00.098Z,98790.81
2022-09-07T01:13:50.088Z,98790.81
2022-09-07T01:16:59.961Z,98782.16
2022-09-07T01:20:06.983Z,98784.13
2022-09-07T01:23:54.392Z,98785.75
2022-09-07T01:27:02.530Z,98784.22
2022-09-07T01:30:09.901Z,98790.16
2022-09-07T01:33:01.318Z,98791.03
2022-09-07T01:36:04.970Z,98781.81
2022-09-07T01:38:54.275Z,98782.22
2022-09-07T01:41:42.860Z,98778.66
2022-09-07T01:44:55.153Z,98780.28
2022-09-07T01:47:45.974Z,98789.78
2022-09-07T01:50:59.141Z,98792.94
2022-09-07T01:54:22.795Z,98794.56
2022-09-07T01:57:14.725Z,98795.44
2022-09-07T02:00:05.399Z,98801.78
2022-09-07T02:03:04.787Z,98799.00
2022-09-07T02:06:00.734Z,98798.63
2022-09-07T02:08:50.357Z,98802.59
2022-09-07T02:11:45.297Z,98792.72
2022-09-07T02:14:36.370Z,98800.28
2022-09-07T02:17:29.638Z,98797.94
2022-09-07T02:20:23.863Z,98791.66
2022-09-07T02:23:14.865Z,98784.94
2022-09-07T02:26:10.393Z,98778.56
2022-09-07T02:28:56.825Z,98778.16
2022-09-07T02:31:42.501Z,98775.03
2022-09-07T02:34:27.841Z,98771.19
2022-09-07T02:37:16.219Z,98767.56
2022-09-07T02:40:02.230Z,98771.53
2022-09-07T02:42:49.170Z,98764.78
2022-09-07T02:45:53.942Z,98762.38
2022-09-07T02:48:54.848Z,98762.38
2022-09-07T02:51:43.005Z,98754.53
2022-09-07T02:55:02.319Z,98764.44
2022-09-07T02:58:29.267Z,98761.66
2022-09-07T03:01:33.244Z,98756.09
2022-09-07T03:04:43.728Z,98765.63
2022-09-07T03:07:36.038Z,98765.78
2022-09-07T03:10:23.120Z,98766.66
2022-09-07T03:13:08.914Z,98774.56
2022-09-07T03:15:56.388Z,98772.56
2022-09-07T03:18:43.464Z,98767.38
2022-09-07T03:21:29.071Z,98767.72
2022-09-07T03:24:14.300Z,98757.03
2022-09-07T03:27:00.642Z,98753.91
2022-09-07T03:29:46.004Z,98759.41
2022-09-07T03:32:37.186Z,98763.38
2022-09-07T03:35:23.082Z,98771.63
2022-09-07T03:38:08.521Z,98767.38
2022-09-07T03:41:02.140Z,98768.19
2022-09-07T03:43:48.464Z,98757.81
2022-09-07T03:46:34.857Z,98765.44
2022-09-07T03:49:20.304Z,98767.00
2022-09-07T03:52:05.894Z,98771.34
2022-09-07T03:54:51.213Z,98759.88
2022-09-07T03:57:36.480Z,98761.09
2022-09-07T04:00:21.661Z,98761.47
2022-09-07T04:03:07.074Z,98762.66
2022-09-07T04:05:52.331Z,98760.75
2022-09-07T04:08:39.156Z,98763.47
2022-09-07T04:11:24.492Z,98762.16
2022-09-07T04:14:11.583Z,98764.78
2022-09-07T04:16:57.301Z,98759.25
2022-09-07T04:19:42.747Z,98759.94
2022-09-07T04:22:28.168Z,98765.41
2022-09-07T04:25:14.115Z,98748.34
2022-09-07T04:27:59.314Z,98755.00
2022-09-07T04:30:45.084Z,98756.91
2022-09-07T04:33:34.456Z,98759.69
2022-09-07T04:36:21.087Z,98751.03
2022-09-07T04:39:06.415Z,98761.69
2022-09-07T04:41:51.697Z,98756.50
2022-09-07T04:44:37.081Z,98757.22
2022-09-07T04:47:23.239Z,98752.03
2022-09-07T04:50:09.196Z,98746.91
2022-09-07T04:52:54.480Z,98752.38
2022-09-07T04:55:39.691Z,98755.59
2022-09-07T04:58:25.021Z,98753.16
2022-09-07T05:01:10.669Z,98758.28
2022-09-07T05:03:57.665Z,98749.19
2022-09-07T05:06:43.722Z,98747.53
2022-09-07T05:09:29.147Z,98749.19
2022-09-07T05:12:14.355Z,98742.47
2022-09-07T05:14:59.794Z,98739.72
2022-09-07T05:17:46.489Z,98743.72
2022-09-07T05:20:31.800Z,98739.34
2022-09-07T05:23:17.164Z,98738.66
2022-09-07T05:26:04.067Z,98743.84
2022-09-07T05:28:50.398Z,98746.25
2022-09-07T05:31:36.495Z,98747.81
2022-09-07T05:34:29.457Z,98744.25
2022-09-07T05:37:15.249Z,98749.88
2022-09-07T05:40:01.078Z,98747.97
2022-09-07T05:42:46.884Z,98746.78
2022-09-07T05:45:32.306Z,98747.97
2022-09-07T05:48:17.630Z,98752.75
2022-09-07T05:51:03.703Z,98744.84
2022-09-07T05:53:50.592Z,98738.53
2022-09-07T05:56:36.568Z,98737.75
2022-09-07T05:59:21.744Z,98737.31
2022-09-07T06:02:07.581Z,98735.34
2022-09-07T06:04:53.237Z,98730.19
2022-09-07T06:07:38.971Z,98725.53
2022-09-07T06:13:31.535Z,98724.72
2022-09-07T06:16:18.653Z,98717.09
2022-09-07T06:19:09.390Z,98723.53
2022-09-07T06:21:54.979Z,98708.88
2022-09-07T06:24:40.322Z,98717.28
2022-09-07T06:27:25.704Z,98719.28
2022-09-07T06:30:11.078Z,98722.03
2022-09-07T06:32:56.610Z,98732.34
2022-09-07T06:35:41.955Z,98730.78
2022-09-07T06:38:36.496Z,98732.78
2022-09-07T06:44:28.048Z,98723.25
2022-09-07T06:47:13.473Z,98720.09
2022-09-07T06:49:59.148Z,98722.09
2022-09-07T06:55:50.332Z,98722.81
2022-09-07T06:58:38.079Z,98714.91
2022-09-07T07:01:29.153Z,98717.28
2022-09-07T07:04:14.541Z,98710.94
2022-09-07T07:06:59.875Z,98718.47
2022-09-07T07:09:45.151Z,98715.69
2022-09-07T07:15:15.418Z,98715.69
2022-09-07T07:18:14.829Z,98720.03
2022-09-07T07:21:07.884Z,98714.84
2022-09-07T07:23:54.283Z,98712.06
2022-09-07T07:26:40.259Z,98709.19
2022-09-07T07:29:28.230Z,98702.03
2022-09-07T07:32:13.962Z,98702.81
2022-09-07T07:34:59.131Z,98702.03
2022-09-07T07:37:44.949Z,98701.22
2022-09-07T07:40:31.847Z,98705.16
2022-09-07T07:43:18.711Z,98690.84
2022-09-07T07:46:06.171Z,98694.06
2022-09-07T07:48:52.649Z,98690.41
2022-09-07T07:54:43.859Z,98687.63
2022-09-07T07:57:29.536Z,98686.41
2022-09-07T08:00:23.561Z,98688.00
2022-09-07T08:03:17.173Z,98682.78
2022-09-07T08:06:21.773Z,98688.69
2022-09-07T08:09:07.041Z,98696.22
2022-09-07T08:11:52.366Z,98693.00
2022-09-07T08:14:43.452Z,98695.78
2022-09-07T08:17:28.928Z,98694.59
2022-09-07T08:20:17.262Z,98687.47
2022-09-07T08:23:02.592Z,98695.41
2022-09-07T08:25:52.603Z,98692.16
2022-09-07T08:28:41.286Z,98686.63
2022-09-07T08:31:27.215Z,98678.75
2022-09-07T08:34:12.702Z,98686.63
2022-09-07T08:36:58.199Z,98686.97
2022-09-07T08:39:43.949Z,98682.66
2022-09-07T08:42:56.895Z,98679.88
2022-09-07T08:45:57.475Z,98674.31
2022-09-07T08:48:42.801Z,98683.00
2022-09-07T08:51:39.040Z,98682.56
2022-09-07T08:54:24.655Z,98680.56
2022-09-07T08:57:25.986Z,98677.03
2022-09-07T09:00:14.360Z,98662.34
2022-09-07T09:06:08.191Z,98671.47
2022-09-07T09:09:31.089Z,98669.47
2022-09-07T09:12:20.712Z,98673.03
2022-09-07T09:15:22.241Z,98667.47
2022-09-07T09:18:43.033Z,98666.25
2022-09-07T09:21:28.470Z,98660.69
2022-09-07T09:24:17.533Z,98665.03
2022-09-07T09:27:03.449Z,98661.50
2022-09-07T09:29:48.933Z,98664.28
2022-09-07T09:32:36.293Z,98657.91
2022-09-07T09:35:38.673Z,98665.03
2022-09-07T09:38:33.136Z,98664.28
2022-09-07T09:41:18.814Z,98665.81
2022-09-07T09:44:04.278Z,98658.72
2022-09-07T09:50:08.019Z,98654.72
2022-09-07T09:52:53.553Z,98655.50
2022-09-07T09:55:40.804Z,98667.41
2022-09-07T10:03:10.563Z,98660.63
2022-09-07T10:04:43.414Z,98664.16
2022-09-07T10:07:30.226Z,98663.38
2022-09-07T10:10:16.891Z,98660.63
2022-09-07T10:13:02.379Z,98663.38
2022-09-07T10:15:52.234Z,98653.84
2022-09-07T10:18:54.395Z,98655.84
2022-09-07T10:21:39.520Z,98653.84
2022-09-07T10:24:27.893Z,98653.06
2022-09-07T10:27:20.896Z,98658.63
2022-09-07T10:30:16.144Z,98652.28
2022-09-07T10:34:25.641Z,98662.16
2022-09-07T10:37:08.474Z,98659.38
2022-09-07T10:40:16.505Z,98651.50
2022-09-07T10:43:24.008Z,98653.84
2022-09-07T10:53:18.316Z,98651.41
2022-09-07T10:56:15.161Z,98643.78
2022-09-07T11:03:27.181Z,98632.25
2022-09-07T11:06:22.204Z,98641.69
2022-09-07T11:09:42.634Z,98630.94
2022-09-07T11:12:36.128Z,98636.84
2022-09-07T11:15:28.865Z,98636.41
2022-09-07T11:18:23.715Z,98639.97
2022-09-07T11:21:56.026Z,98633.19
2022-09-07T11:28:07.437Z,98639.97
2022-09-07T11:31:00.268Z,98635.97
2022-09-07T11:37:18.706Z,98628.84
2022-09-07T11:40:17.224Z,98616.19
2022-09-07T11:43:17.351Z,98616.53
2022-09-07T11:46:07.667Z,98621.66
2022-09-07T11:48:56.059Z,98618.78
2022-09-07T11:51:56.174Z,98606.81
2022-09-07T11:55:08.244Z,98602.44
2022-09-07T11:58:09.093Z,98604.38
2022-09-07T12:01:13.228Z,98597.16
2022-09-07T12:04:15.357Z,98595.16
2022-09-07T12:07:29.373Z,98590.84
2022-09-07T12:10:14.424Z,98599.94
2022-09-07T12:13:21.372Z,98599.16
2022-09-07T12:16:12.962Z,98586.47
2022-09-07T12:19:06.997Z,98584.16
2022-09-07T12:21:52.122Z,98597.59
2022-09-07T12:24:43.849Z,98590.47
2022-09-07T12:27:29.185Z,98593.59
2022-09-07T12:30:14.438Z,98596.03
2022-09-07T12:33:04.435Z,98602.38
2022-09-07T12:35:50.716Z,98599.16
2022-09-07T12:39:06.350Z,98594.81
2022-09-07T12:45:31.054Z,98613.75
2022-09-07T12:48:16.631Z,98617.63
2022-09-07T12:55:10.036Z,98652.78
2022-09-07T12:58:15.806Z,98642.31
2022-09-07T13:01:13.414Z,98641.47
2022-09-07T13:04:12.652Z,98644.94
2022-09-07T13:07:23.392Z,98647.72
2022-09-07T13:10:31.128Z,98632.59
2022-09-07T13:19:46.597Z,98632.38
2022-09-07T13:22:32.172Z,98605.63
2022-09-07T13:25:21.903Z,98609.97
2022-09-07T13:28:25.496Z,98613.09
2022-09-07T13:31:14.067Z,98600.78
2022-09-07T13:34:00.787Z,98589.25
2022-09-07T13:36:48.600Z,98586.81
2022-09-07T13:39:49.452Z,98578.00
2022-09-07T13:42:36.804Z,98583.91
2022-09-07T13:45:31.853Z,98579.47
2022-09-07T13:48:36.938Z,98581.81
2022-09-07T13:51:33.936Z,98581.38
2022-09-07T13:55:03.718Z,98572.91
2022-09-07T13:58:04.506Z,98576.03
2022-09-07T14:00:59.696Z,98569.13
2022-09-07T14:03:51.016Z,98564.34
2022-09-07T14:06:38.175Z,98569.59
2022-09-07T14:09:23.646Z,98556.00
2022-09-07T14:12:15.955Z,98560.59
2022-09-07T14:15:17.528Z,98565.81
2022-09-07T14:18:12.479Z,98566.59
2022-09-07T14:20:58.774Z,98572.84
2022-09-07T14:23:50.644Z,98571.16
2022-09-07T14:26:36.332Z,98577.19
2022-09-07T14:29:30.252Z,98573.50
2022-09-07T14:32:27.147Z,98579.50
2022-09-07T14:35:16.605Z,98571.97
2022-09-07T14:39:04.084Z,98561.19
2022-09-07T14:41:28.545Z,98557.59
2022-09-07T14:44:46.944Z,98553.59
2022-09-07T14:47:34.003Z,98560.72
2022-09-07T14:50:24.938Z,98566.75
2022-09-07T14:53:34.700Z,98567.84
2022-09-07T14:56:23.549Z,98563.81
2022-09-07T14:59:37.472Z,98552.69
2022-09-07T15:02:35.678Z,98542.81
2022-09-07T15:05:27.945Z,98546.03
2022-09-07T15:08:43.654Z,98550.34
2022-09-07T15:11:38.402Z,98550.34
2022-09-07T15:14:26.769Z,98551.50
2022-09-07T15:17:49.556Z,98548.72
2022-09-07T15:20:41.135Z,98538.47
2022-09-07T15:23:27.801Z,98529.78
2022-09-07T15:27:01.936Z,98525.31
2022-09-07T15:29:20.766Z,98520.44
2022-09-07T15:32:11.209Z,98517.66
2022-09-07T15:34:57.210Z,98515.34
2022-09-07T15:41:21.953Z,98498.31
2022-09-07T15:44:05.167Z,98500.97
2022-09-07T15:49:58.800Z,98501.75
2022-09-07T15:52:46.479Z,98501.75
2022-09-07T15:55:32.383Z,98494.28
2022-09-07T15:58:17.478Z,98489.97
2022-09-07T16:04:14.919Z,98488.06
2022-09-07T16:07:01.580Z,98490.06
2022-09-07T16:09:47.428Z,98484.50
2022-09-07T16:15:45.830Z,98488.63
2022-09-07T16:18:31.822Z,98498.22
2022-09-07T16:21:18.138Z,98499.09
2022-09-07T16:24:03.497Z,98509.34
2022-09-07T16:26:48.904Z,98509.78
2022-09-07T16:29:34.246Z,98513.31
2022-09-07T16:35:26.336Z,98514.75
2022-09-07T16:41:22.732Z,98516.97
2022-09-07T16:44:08.748Z,98520.22
2022-09-07T16:46:55.153Z,98516.22
2022-09-07T16:49:40.614Z,98528.91
2022-09-07T16:52:26.723Z,98519.00
2022-09-07T16:55:12.135Z,98516.69
2022-09-07T17:01:02.921Z,98483.16
2022-09-07T17:03:49.767Z,98476.84
2022-09-07T17:06:35.748Z,98470.84
2022-09-07T17:09:26.502Z,98467.59
2022-09-07T17:12:12.819Z,98464.69
2022-09-07T17:14:58.258Z,98470.59
2022-09-07T17:17:44.249Z,98470.59
2022-09-07T17:20:30.364Z,98475.25
2022-09-07T17:23:17.682Z,98482.38
2022-09-07T17:26:07.665Z,98482.38
2022-09-07T17:28:56.569Z,98497.50
2022-09-07T17:34:51.886Z,98503.06
2022-09-07T17:37:37.491Z,98502.28
2022-09-07T17:40:23.519Z,98502.63
2022-09-07T17:46:19.729Z,98504.53
2022-09-07T17:49:08.107Z,98508.19
2022-09-07T17:51:53.481Z,98516.97
2022-09-07T17:54:39.626Z,98519.47
2022-09-07T17:57:25.156Z,98527.00
2022-09-07T18:00:12.126Z,98526.22
2022-09-07T18:02:58.906Z,98534.22
2022-09-07T18:05:44.908Z,98524.00
2022-09-07T18:08:30.451Z,98521.66
2022-09-07T18:14:24.213Z,98535.38
2022-09-07T18:17:09.392Z,98515.09
2022-09-07T18:19:55.027Z,98509.88
2022-09-07T18:22:40.344Z,98499.22
2022-09-07T18:25:25.730Z,98505.22
2022-09-07T18:31:16.578Z,98525.25
2022-09-07T18:34:01.885Z,98528.13
2022-09-07T18:36:47.364Z,98527.00
2022-09-07T18:39:33.570Z,98531.00
2022-09-07T18:42:19.322Z,98531.47
2022-09-07T18:48:13.237Z,98527.91
2022-09-07T18:51:00.338Z,98521.53
2022-09-07T18:53:47.092Z,98524.13
2022-09-07T18:56:32.785Z,98522.09
2022-09-07T18:59:17.963Z,98525.31
2022-09-07T19:02:05.728Z,98529.34
2022-09-07T19:07:57.268Z,98505.53
2022-09-07T19:10:42.829Z,98508.31
2022-09-07T19:13:28.266Z,98507.97
2022-09-07T19:16:19.739Z,98501.63
2022-09-07T19:19:06.938Z,98494.97
2022-09-07T19:21:52.825Z,98491.41
2022-09-07T19:24:38.564Z,98493.41
2022-09-07T19:27:23.843Z,98498.19
2022-09-07T19:30:11.173Z,98499.06
2022-09-07T19:32:58.696Z,98484.41
2022-09-07T19:35:47.345Z,98486.75
2022-09-07T19:38:32.731Z,98491.50
2022-09-07T19:41:18.414Z,98497.53
2022-09-07T19:44:04.326Z,98491.50
2022-09-07T19:46:50.318Z,98500.31
2022-09-07T19:49:35.608Z,98491.16
2022-09-07T19:52:20.870Z,98490.31
2022-09-07T19:55:06.913Z,98480.06
2022-09-07T19:57:52.486Z,98483.19
2022-09-07T20:00:41.785Z,98487.63
2022-09-07T20:03:27.109Z,98484.50
2022-09-07T20:06:16.766Z,98496.38
2022-09-07T20:09:02.401Z,98502.28
2022-09-07T20:11:48.345Z,98505.16
2022-09-07T20:14:34.193Z,98498.84
2022-09-07T20:17:19.291Z,98509.94
2022-09-07T20:20:05.454Z,98503.59
2022-09-07T20:22:51.331Z,98498.50
2022-09-07T20:25:36.644Z,98487.81
2022-09-07T20:28:21.847Z,98498.16
2022-09-07T20:31:09.889Z,98493.81
2022-09-07T20:33:55.247Z,98491.03
2022-09-07T20:36:40.706Z,98492.59
2022-09-07T20:39:25.985Z,98486.38
2022-09-07T20:42:11.240Z,98489.56
2022-09-07T20:44:56.663Z,98486.69
2022-09-07T20:47:41.905Z,98482.34
2022-09-07T20:50:27.151Z,98481.56
2022-09-07T20:53:12.876Z,98478.03
2022-09-07T20:56:18.081Z,98483.94
2022-09-07T20:59:04.018Z,98474.81
2022-09-07T21:01:49.545Z,98482.00
2022-09-07T21:04:34.617Z,98478.03
2022-09-07T21:07:19.846Z,98476.16
2022-09-07T21:10:06.997Z,98479.22
2022-09-07T21:12:53.282Z,98478.47
2022-09-07T21:15:43.486Z,98479.69
2022-09-07T21:18:28.812Z,98476.56
2022-09-07T21:21:21.130Z,98471.47
2022-09-07T21:24:12.580Z,98463.88
2022-09-07T21:26:58.045Z,98460.34
2022-09-07T21:29:43.404Z,98457.56
2022-09-07T21:32:28.651Z,98461.56
2022-09-07T21:35:13.863Z,98464.78
2022-09-07T21:37:59.189Z,98453.69
2022-09-07T21:40:44.719Z,98453.34
2022-09-07T21:43:30.027Z,98454.09
2022-09-07T21:46:18.272Z,98465.69
2022-09-07T21:49:04.736Z,98459.66
2022-09-07T21:51:49.912Z,98453.78
2022-09-07T21:54:35.203Z,98453.78
2022-09-07T21:57:20.540Z,98446.66
2022-09-07T22:00:08.707Z,98447.44
2022-09-07T22:02:54.469Z,98447.88
2022-09-07T22:05:40.099Z,98454.66
2022-09-07T22:08:25.321Z,98444.78
2022-09-07T22:11:13.441Z,98434.88
2022-09-07T22:14:01.989Z,98426.53
2022-09-07T22:16:47.391Z,98426.53
2022-09-07T22:19:32.559Z,98416.66
2022-09-07T22:22:17.880Z,98421.88
2022-09-07T22:25:03.452Z,98416.34
2022-09-07T22:27:49.211Z,98404.44
2022-09-07T22:30:34.434Z,98413.09
2022-09-07T22:33:19.671Z,98404.44
2022-09-07T22:36:12.877Z,98402.09
2022-09-07T22:39:01.222Z,98411.66
2022-09-07T22:41:47.545Z,98412.44
2022-09-07T22:44:33.095Z,98416.00
2022-09-07T22:47:18.473Z,98417.66
2022-09-07T22:50:03.786Z,98408.53
2022-09-07T22:52:50.372Z,98413.78
2022-09-07T22:55:38.684Z,98409.44
2022-09-07T22:58:24.154Z,98407.88
2022-09-07T23:01:09.717Z,98415.88
2022-09-07T23:03:55.719Z,98410.31
2022-09-07T23:06:43.309Z,98406.31
2022-09-07T23:09:28.761Z,98406.78
2022-09-07T23:12:14.157Z,98400.88
2022-09-07T23:14:59.361Z,98391.31
2022-09-07T23:17:44.907Z,98402.75
2022-09-07T23:20:30.350Z,98411.19
2022-09-07T23:23:16.101Z,98403.31
2022-09-07T23:26:02.814Z,98401.66
2022-09-07T23:28:56.723Z,98410.75
2022-09-07T23:31:42.579Z,98412.75
2022-09-07T23:34:28.307Z,98407.19
2022-09-07T23:37:13.646Z,98400.88
2022-09-07T23:39:58.840Z,98401.31
2022-09-07T23:42:43.931Z,98396.53
2022-09-07T23:45:29.216Z,98391.75
2022-09-07T23:48:14.685Z,98398.53
2022-09-07T23:50:59.928Z,98396.19
2022-09-07T23:53:45.152Z,98396.19
2022-09-07T23:56:32.228Z,98385.53
2022-09-07T23:59:17.491Z,98385.22
